createdAt,value
2022-11-28T00:01:24.707Z,2.70
2022-11-28T00:03:51.502Z,2.40
2022-11-28T00:06:18.377Z,2.60
2022-11-28T00:08:45.335Z,2.60
2022-11-28T00:11:13.043Z,2.20
2022-11-28T00:13:39.917Z,2.30
2022-11-28T00:16:07.738Z,2.20
2022-11-28T00:18:34.605Z,2.80
2022-11-28T00:21:02.126Z,2.50
2022-11-28T00:23:30.358Z,2.40
2022-11-28T00:26:04.798Z,2.40
2022-11-28T00:28:31.730Z,3.10
2022-11-28T00:30:58.392Z,3.70
2022-11-28T00:33:25.074Z,2.30
2022-11-28T00:35:58.648Z,4.80
2022-11-28T00:38:25.322Z,3.60
2022-11-28T00:41:01.036Z,2.90
2022-11-28T00:43:28.114Z,3.10
2022-11-28T00:45:54.843Z,2.50
2022-11-28T00:48:21.588Z,2.70
2022-11-28T00:50:48.303Z,2.60
2022-11-28T00:53:14.999Z,2.70
2022-11-28T00:55:41.723Z,2.90
2022-11-28T00:58:08.419Z,4.70
2022-11-28T01:00:35.338Z,2.50
2022-11-28T01:03:02.065Z,2.10
2022-11-28T01:05:28.762Z,2.30
2022-11-28T01:07:55.538Z,2.40
2022-11-28T01:10:22.342Z,3.10
2022-11-28T01:12:48.981Z,2.60
2022-11-28T01:15:15.638Z,2.30
2022-11-28T01:17:42.308Z,2.40
2022-11-28T01:20:09.165Z,2.50
2022-11-28T01:22:35.830Z,3.20
2022-11-28T01:25:02.525Z,3.00
2022-11-28T01:27:29.204Z,2.10
2022-11-28T01:29:55.876Z,4.10
2022-11-28T01:32:22.667Z,5.70
2022-11-28T01:34:49.387Z,2.30
2022-11-28T01:37:16.074Z,3.30
2022-11-28T01:39:42.716Z,3.20
2022-11-28T01:42:15.853Z,2.60
2022-11-28T01:44:42.693Z,2.90
2022-11-28T01:47:09.693Z,2.90
2022-11-28T01:49:37.584Z,4.50
2022-11-28T01:52:15.470Z,2.50
2022-11-28T01:54:44.267Z,3.30
2022-11-28T01:57:13.100Z,2.90
2022-11-28T01:59:42.451Z,2.70
2022-11-28T02:02:11.732Z,4.80
2022-11-28T02:04:38.461Z,2.60
2022-11-28T02:07:05.149Z,3.00
2022-11-28T02:09:31.775Z,3.00
2022-11-28T02:11:58.445Z,2.90
2022-11-28T02:14:49.637Z,3.00
2022-11-28T02:17:22.661Z,3.60
2022-11-28T02:20:03.177Z,3.30
2022-11-28T02:22:50.054Z,3.00
2022-11-28T02:25:25.892Z,3.50
2022-11-28T02:28:13.923Z,3.40
2022-11-28T02:30:59.467Z,3.40
2022-11-28T02:33:31.032Z,3.30
2022-11-28T02:36:06.966Z,3.30
2022-11-28T02:38:48.812Z,3.40
2022-11-28T02:41:15.375Z,3.40
2022-11-28T02:44:01.492Z,3.00
2022-11-28T02:46:30.627Z,3.10
2022-11-28T02:49:00.393Z,3.20
2022-11-28T02:51:41.839Z,3.30
2022-11-28T02:54:10.390Z,3.40
2022-11-28T02:56:37.147Z,3.40
2022-11-28T02:59:03.902Z,3.10
2022-11-28T03:01:36.603Z,2.80
2022-11-28T03:04:06.368Z,3.60
2022-11-28T03:07:08.579Z,3.30
2022-11-28T03:09:43.109Z,3.30
2022-11-28T03:12:28.642Z,3.20
2022-11-28T03:14:56.313Z,3.20
2022-11-28T03:17:41.680Z,2.40
2022-11-28T03:20:28.592Z,3.20
2022-11-28T03:23:07.239Z,2.80
2022-11-28T03:25:41.054Z,3.20
2022-11-28T03:28:14.407Z,3.20
2022-11-28T03:30:41.042Z,3.10
2022-11-28T03:33:08.652Z,1.90
2022-11-28T03:35:39.753Z,2.40
2022-11-28T03:38:12.069Z,2.70
2022-11-28T03:40:44.621Z,3.10
2022-11-28T03:43:14.024Z,3.20
2022-11-28T03:45:43.671Z,2.80
2022-11-28T03:48:12.286Z,2.60
2022-11-28T03:50:42.964Z,2.80
2022-11-28T03:53:11.892Z,3.10
2022-11-28T03:55:44.680Z,2.60
2022-11-28T03:58:30.108Z,3.00
2022-11-28T04:00:56.720Z,3.10
2022-11-28T04:03:37.765Z,2.10
2022-11-28T04:06:10.686Z,3.00
2022-11-28T04:08:40.521Z,2.70
2022-11-28T04:11:15.560Z,2.80
2022-11-28T04:14:17.843Z,3.10
2022-11-28T04:17:05.958Z,3.10
2022-11-28T04:19:41.859Z,3.00
2022-11-28T04:22:14.573Z,3.00
2022-11-28T04:24:52.901Z,3.10
2022-11-28T04:27:26.954Z,3.00
2022-11-28T04:29:55.297Z,2.80
2022-11-28T04:32:23.444Z,4.80
2022-11-28T04:34:54.970Z,2.40
2022-11-28T04:40:55.756Z,2.30
2022-11-28T04:43:28.028Z,2.90
2022-11-28T04:46:03.981Z,3.10
2022-11-28T04:48:35.857Z,2.90
2022-11-28T04:51:06.631Z,2.80
2022-11-28T04:53:56.580Z,3.00
2022-11-28T04:56:37.150Z,3.00
2022-11-28T04:59:04.771Z,2.90
2022-11-28T05:01:32.634Z,2.70
2022-11-28T05:03:59.710Z,2.50
2022-11-28T05:06:27.985Z,2.50
2022-11-28T05:08:54.829Z,2.80
2022-11-28T05:11:21.728Z,2.80
2022-11-28T05:13:48.545Z,2.30
2022-11-28T05:16:15.529Z,2.50
2022-11-28T05:18:42.758Z,2.70
2022-11-28T05:21:09.517Z,2.40
2022-11-28T05:23:39.788Z,2.40
2022-11-28T05:26:10.876Z,2.70
2022-11-28T05:28:37.646Z,3.20
2022-11-28T05:31:04.996Z,2.60
2022-11-28T05:33:32.489Z,2.90
2022-11-28T05:36:02.779Z,2.90
2022-11-28T05:38:29.385Z,3.20
2022-11-28T05:40:55.989Z,3.00
2022-11-28T05:43:22.589Z,2.50
2022-11-28T05:45:49.375Z,2.90
2022-11-28T05:48:16.090Z,2.90
2022-11-28T05:50:42.751Z,2.90
2022-11-28T05:53:09.814Z,2.80
2022-11-28T05:55:39.899Z,2.70
2022-11-28T05:58:06.739Z,3.30
2022-11-28T06:00:33.385Z,3.00
2022-11-28T06:03:01.636Z,2.80
2022-11-28T06:05:42.234Z,2.10
2022-11-28T06:08:10.828Z,3.40
2022-11-28T06:10:37.506Z,2.70
2022-11-28T06:13:04.165Z,2.80
2022-11-28T06:15:34.894Z,3.00
2022-11-28T06:18:04.028Z,2.80
2022-11-28T06:20:30.657Z,3.90
2022-11-28T06:22:57.269Z,2.30
2022-11-28T06:25:23.933Z,2.30
2022-11-28T06:27:50.553Z,2.90
2022-11-28T06:30:17.463Z,1.70
2022-11-28T06:32:44.154Z,3.00
2022-11-28T06:35:10.849Z,2.70
2022-11-28T06:37:37.538Z,2.70
2022-11-28T06:40:05.097Z,2.00
2022-11-28T06:42:31.797Z,3.00
2022-11-28T06:44:58.508Z,2.00
2022-11-28T06:47:25.155Z,2.80
2022-11-28T06:49:51.817Z,2.80
2022-11-28T06:52:18.470Z,2.80
2022-11-28T06:54:45.308Z,2.60
2022-11-28T06:57:12.269Z,3.70
2022-11-28T06:59:39.012Z,2.60
2022-11-28T07:02:07.977Z,2.80
2022-11-28T07:04:34.925Z,2.60
2022-11-28T07:07:01.778Z,2.40
2022-11-28T07:09:28.463Z,2.50
2022-11-28T07:11:55.394Z,3.20
2022-11-28T07:14:22.110Z,3.00
2022-11-28T07:16:49.303Z,2.90
2022-11-28T07:19:16.346Z,3.90
2022-11-28T07:21:43.023Z,2.90
2022-11-28T07:24:09.691Z,2.90
2022-11-28T07:26:38.128Z,3.00
2022-11-28T07:29:07.004Z,4.50
2022-11-28T07:31:33.888Z,2.90
2022-11-28T07:34:01.977Z,3.00
2022-11-28T07:36:29.095Z,3.10
2022-11-28T07:38:57.189Z,2.60
2022-11-28T07:41:26.759Z,2.80
2022-11-28T07:43:55.170Z,2.20
2022-11-28T07:46:22.037Z,3.10
2022-11-28T07:48:49.116Z,2.60
2022-11-28T07:51:20.469Z,2.70
2022-11-28T07:53:47.538Z,3.50
2022-11-28T07:56:18.836Z,3.20
2022-11-28T07:58:46.502Z,3.20
2022-11-28T08:01:15.015Z,2.80
2022-11-28T08:03:41.963Z,2.90
2022-11-28T08:06:08.770Z,3.30
2022-11-28T08:08:35.426Z,3.20
2022-11-28T08:11:03.041Z,3.40
2022-11-28T08:13:29.778Z,3.40
2022-11-28T08:15:56.578Z,3.60
2022-11-28T08:18:23.377Z,3.60
2022-11-28T08:21:06.315Z,3.60
2022-11-28T08:23:34.493Z,3.90
2022-11-28T08:26:02.210Z,3.50
2022-11-28T08:28:29.052Z,3.60
2022-11-28T08:30:56.198Z,5.20
2022-11-28T08:33:26.320Z,3.20
2022-11-28T08:35:52.962Z,4.10
2022-11-28T08:38:19.580Z,3.70
2022-11-28T08:40:46.242Z,3.00
2022-11-28T08:43:13.164Z,5.30
2022-11-28T08:45:39.883Z,3.50
2022-11-28T08:48:06.596Z,3.70
2022-11-28T08:50:33.276Z,3.50
2022-11-28T08:53:01.738Z,5.90
2022-11-28T08:55:39.129Z,3.30
2022-11-28T08:58:08.570Z,3.70
2022-11-28T09:00:35.219Z,3.70
2022-11-28T09:03:01.869Z,3.60
2022-11-28T09:05:29.418Z,3.70
2022-11-28T09:07:56.444Z,4.90
2022-11-28T09:10:23.510Z,3.60
2022-11-28T09:12:50.289Z,6.20
2022-11-28T09:15:17.847Z,5.90
2022-11-28T09:17:44.900Z,3.80
2022-11-28T09:20:11.907Z,3.50
2022-11-28T09:22:38.537Z,4.40
2022-11-28T09:25:05.375Z,4.30
2022-11-28T09:27:34.393Z,4.50
2022-11-28T09:30:01.126Z,3.30
2022-11-28T09:32:27.804Z,3.30
2022-11-28T09:34:54.564Z,3.40
2022-11-28T09:37:22.038Z,3.40
2022-11-28T09:40:11.324Z,4.20
2022-11-28T09:42:37.614Z,3.90
2022-11-28T09:45:12.634Z,4.20
2022-11-28T09:47:40.961Z,4.50
2022-11-28T09:50:16.778Z,4.50
2022-11-28T09:52:59.069Z,4.70
2022-11-28T09:55:31.856Z,4.60
2022-11-28T09:58:01.209Z,4.60
2022-11-28T10:00:30.811Z,4.10
2022-11-28T10:03:00.456Z,4.80
2022-11-28T10:05:49.581Z,4.70
2022-11-28T10:08:41.438Z,4.80
2022-11-28T10:11:33.354Z,4.60
2022-11-28T10:14:09.506Z,4.70
2022-11-28T10:16:48.548Z,4.80
2022-11-28T10:19:46.254Z,4.80
2022-11-28T10:22:05.020Z,4.60
2022-11-28T10:29:45.069Z,4.90
2022-11-28T10:32:14.520Z,5.00
2022-11-28T10:42:13.748Z,5.10
2022-11-28T10:44:54.005Z,4.90
2022-11-28T10:49:57.860Z,5.10
2022-11-28T10:52:29.415Z,5.10
2022-11-28T10:55:08.437Z,4.60
2022-11-28T10:57:55.432Z,5.20
2022-11-28T11:00:22.219Z,5.10
2022-11-28T11:02:56.014Z,6.10
2022-11-28T11:08:07.853Z,5.10
2022-11-28T11:11:17.629Z,5.10
2022-11-28T11:20:34.845Z,5.10
2022-11-28T11:23:03.341Z,5.20
2022-11-28T11:25:32.122Z,6.50
2022-11-28T11:35:23.718Z,5.30
2022-11-28T11:37:50.402Z,4.90
2022-11-28T11:40:20.656Z,5.00
2022-11-28T11:42:58.023Z,5.30
2022-11-28T11:47:51.815Z,5.20
2022-11-28T11:50:20.183Z,5.10
2022-11-28T11:53:02.119Z,5.50
2022-11-28T11:55:32.898Z,5.40
2022-11-28T11:58:06.087Z,5.30
2022-11-28T12:00:43.742Z,5.50
2022-11-28T12:10:56.080Z,5.30
2022-11-28T12:15:49.792Z,5.40
2022-11-28T12:18:19.552Z,5.20
2022-11-28T12:21:06.529Z,5.60
2022-11-28T12:23:45.356Z,5.60
2022-11-28T12:26:15.078Z,6.00
2022-11-28T12:29:00.564Z,5.70
2022-11-28T12:34:16.096Z,5.60
2022-11-28T13:05:15.610Z,5.70
2022-11-28T13:10:27.846Z,5.30
2022-11-28T13:13:07.818Z,5.50
2022-11-28T13:24:16.455Z,5.60
2022-11-28T13:26:59.057Z,5.00
2022-11-28T13:29:28.528Z,5.90
2022-11-28T13:32:02.419Z,5.50
2022-11-28T13:34:29.730Z,5.50
2022-11-28T13:39:51.077Z,5.10
2022-11-28T13:52:44.530Z,5.40
2022-11-28T14:05:01.901Z,5.30
2022-11-28T14:10:04.161Z,5.40
2022-11-28T14:12:51.475Z,5.20
2022-11-28T14:18:14.257Z,5.20
2022-11-28T14:20:57.245Z,5.60
2022-11-28T14:23:47.539Z,5.20
2022-11-28T14:28:43.551Z,5.40
2022-11-28T14:31:11.090Z,5.30
2022-11-28T14:33:42.639Z,5.30
2022-11-28T14:41:05.131Z,5.00
2022-11-28T14:43:46.029Z,4.80
2022-11-28T18:35:29.835Z,4.40
2022-11-28T18:37:56.435Z,5.50
2022-11-28T18:40:23.082Z,4.60
2022-11-28T18:42:49.661Z,4.50
2022-11-28T18:45:16.271Z,4.70
2022-11-28T18:47:42.942Z,4.50
2022-11-28T18:50:09.733Z,4.60
2022-11-28T18:52:36.443Z,4.50
2022-11-28T18:55:03.440Z,4.10
2022-11-28T18:57:32.802Z,4.80
2022-11-28T19:02:29.264Z,4.60
2022-11-28T19:04:56.026Z,6.00
2022-11-28T19:17:54.618Z,4.50
2022-11-28T19:20:22.463Z,4.60
2022-11-28T19:22:49.965Z,4.70
2022-11-28T19:25:16.712Z,5.30
2022-11-28T19:27:43.291Z,4.60
2022-11-28T19:30:10.560Z,4.60
2022-11-28T19:32:37.445Z,4.60
2022-11-28T19:35:04.302Z,4.30
2022-11-28T19:37:31.029Z,4.50
2022-11-28T19:40:02.341Z,4.00
2022-11-28T19:42:29.759Z,4.80
2022-11-28T19:44:56.464Z,4.10
2022-11-28T19:47:23.246Z,4.10
2022-11-28T19:49:50.100Z,4.20
2022-11-28T19:52:16.780Z,4.00
2022-11-28T19:54:43.759Z,5.40
2022-11-28T19:57:11.374Z,4.50
2022-11-28T19:59:38.016Z,4.40
2022-11-28T20:11:54.108Z,4.60
2022-11-28T20:14:20.866Z,4.30
2022-11-28T20:16:47.730Z,4.30
2022-11-28T20:19:14.987Z,4.40
2022-11-28T20:26:38.243Z,4.80
2022-11-28T20:41:24.687Z,4.20
2022-11-28T20:43:51.452Z,4.00
2022-11-28T20:46:30.176Z,4.30
2022-11-28T20:48:57.630Z,4.70
2022-11-28T20:53:54.924Z,4.30
2022-11-28T20:56:22.413Z,4.00
2022-11-28T21:06:10.684Z,4.20
2022-11-28T21:08:37.512Z,4.40
2022-11-28T21:11:08.678Z,4.30
2022-11-28T21:13:35.465Z,4.40
2022-11-28T21:16:09.698Z,4.30
2022-11-28T21:40:39.965Z,4.40
2022-11-28T21:43:06.695Z,4.20
2022-11-28T21:45:33.981Z,4.20
2022-11-28T22:15:27.645Z,4.20
2022-11-28T22:35:04.840Z,4.30
2022-11-28T22:37:31.508Z,3.90
2022-11-28T22:39:58.161Z,4.20
